createdAt,value
2019-01-06T00:00:52.415Z,47.90
2019-01-06T00:03:31.734Z,47.90
2019-01-06T00:06:25.685Z,47.90
2019-01-06T00:09:25.844Z,47.80
2019-01-06T00:12:12.948Z,47.70
2019-01-06T00:15:02.371Z,47.60
2019-01-06T00:17:50.510Z,47.50
2019-01-06T00:20:37.125Z,47.40
2019-01-06T00:23:24.641Z,47.30
2019-01-06T00:26:11.753Z,47.30
2019-01-06T00:28:58.617Z,47.40
2019-01-06T00:31:45.487Z,47.40
2019-01-06T00:34:25.475Z,47.40
2019-01-06T00:37:24.948Z,47.50
2019-01-06T00:40:23.570Z,47.40
2019-01-06T00:43:06.618Z,47.50
2019-01-06T00:45:54.735Z,47.40
2019-01-06T00:48:42.923Z,47.40
2019-01-06T00:51:40.205Z,47.40
2019-01-06T00:54:26.989Z,47.50
2019-01-06T00:57:33.267Z,47.60
2019-01-06T01:00:12.503Z,47.40
2019-01-06T01:02:58.917Z,47.40
2019-01-06T01:05:53.057Z,47.50
2019-01-06T01:08:41.148Z,47.60
2019-01-06T01:11:33.767Z,47.50
2019-01-06T01:14:31.081Z,47.40
2019-01-06T01:17:18.122Z,48.50
2019-01-06T01:20:05.263Z,48.30
2019-01-06T01:22:53.432Z,48.10
2019-01-06T01:25:40.460Z,48.10
2019-01-06T01:28:27.214Z,48.20
2019-01-06T01:31:21.574Z,48.40
2019-01-06T01:34:18.869Z,48.60
2019-01-06T01:37:05.921Z,48.60
2019-01-06T01:40:02.857Z,48.70
2019-01-06T01:42:49.794Z,48.70
2019-01-06T01:45:37.968Z,48.60
2019-01-06T01:48:26.086Z,48.70
2019-01-06T01:51:13.002Z,48.90
2019-01-06T01:54:04.244Z,49.00
2019-01-06T01:56:55.470Z,49.00
2019-01-06T01:59:49.692Z,49.10
2019-01-06T02:02:36.708Z,49.10
2019-01-06T02:05:39.875Z,49.10
2019-01-06T02:08:30.943Z,49.20
2019-01-06T02:11:24.841Z,49.30
2019-01-06T02:14:11.391Z,49.40
2019-01-06T02:16:58.285Z,49.40
2019-01-06T02:19:49.309Z,49.40
2019-01-06T02:22:56.142Z,49.40
2019-01-06T02:25:42.957Z,49.40
2019-01-06T02:28:48.638Z,49.40
2019-01-06T02:31:26.847Z,49.40
2019-01-06T02:34:13.819Z,49.40
2019-01-06T02:37:10.762Z,49.40
2019-01-06T02:40:01.707Z,49.40
2019-01-06T02:42:52.599Z,49.30
2019-01-06T02:45:38.530Z,49.30
2019-01-06T02:48:31.269Z,49.30
2019-01-06T02:51:19.434Z,49.20
2019-01-06T02:54:06.614Z,49.20
2019-01-06T02:56:53.407Z,49.30
2019-01-06T02:59:47.069Z,49.40
2019-01-06T03:02:33.004Z,50.60
2019-01-06T03:05:17.102Z,49.80
2019-01-06T03:08:17.325Z,49.60
2019-01-06T03:11:04.077Z,49.80
2019-01-06T03:13:54.992Z,50.00
2019-01-06T03:16:49.383Z,50.10
2019-01-06T03:19:36.429Z,50.20
2019-01-06T03:22:23.330Z,50.40
2019-01-06T03:25:10.334Z,50.40
2019-01-06T03:27:53.321Z,50.30
2019-01-06T03:30:40.051Z,50.40
2019-01-06T03:33:26.889Z,50.40
2019-01-06T03:36:13.545Z,50.50
2019-01-06T03:39:01.593Z,50.50
2019-01-06T03:42:04.779Z,50.50
2019-01-06T03:44:58.767Z,50.50
2019-01-06T03:47:55.948Z,50.40
2019-01-06T03:50:44.098Z,50.30
2019-01-06T03:53:40.208Z,50.40
2019-01-06T03:56:27.300Z,50.50
2019-01-06T03:59:22.915Z,50.60
2019-01-06T04:02:29.469Z,50.50
2019-01-06T04:05:16.305Z,50.40
2019-01-06T04:08:03.407Z,50.40
2019-01-06T04:11:00.578Z,50.30
2019-01-06T04:13:47.484Z,50.00
2019-01-06T04:16:34.958Z,49.90
2019-01-06T04:19:25.178Z,49.80
2019-01-06T04:22:17.133Z,49.90
2019-01-06T04:25:05.225Z,49.80
2019-01-06T04:27:55.693Z,49.70
2019-01-06T04:30:53.058Z,49.60
2019-01-06T04:33:40.114Z,49.70
2019-01-06T04:36:34.549Z,49.50
2019-01-06T04:39:29.280Z,49.60
2019-01-06T04:42:16.094Z,49.50
2019-01-06T04:45:08.386Z,49.60
2019-01-06T04:48:15.076Z,49.70
2019-01-06T04:51:00.559Z,49.80
2019-01-06T04:53:51.535Z,49.80
2019-01-06T04:56:45.517Z,49.90
2019-01-06T04:59:39.591Z,50.20
2019-01-06T05:02:33.678Z,50.20
2019-01-06T05:05:29.021Z,50.50
2019-01-06T05:08:15.815Z,50.40
2019-01-06T05:11:16.781Z,50.50
2019-01-06T05:14:07.989Z,50.60
2019-01-06T05:16:59.593Z,50.60
2019-01-06T05:19:56.585Z,50.60
2019-01-06T05:22:35.000Z,50.70
2019-01-06T05:25:21.999Z,50.80
2019-01-06T05:28:09.043Z,50.70
2019-01-06T05:31:06.342Z,50.70
2019-01-06T05:33:53.356Z,50.50
2019-01-06T05:36:47.505Z,50.50
2019-01-06T05:39:44.390Z,50.40
2019-01-06T05:42:31.233Z,50.40
2019-01-06T05:45:19.309Z,50.40
2019-01-06T05:48:13.200Z,50.20
2019-01-06T05:51:13.541Z,50.30
2019-01-06T05:54:00.097Z,50.20
2019-01-06T05:56:48.306Z,50.10
2019-01-06T05:59:35.085Z,50.10
2019-01-06T06:02:31.921Z,50.10
2019-01-06T06:05:38.473Z,50.00
2019-01-06T06:08:39.049Z,50.00
2019-01-06T06:11:29.749Z,50.00
2019-01-06T06:14:18.969Z,50.20
2019-01-06T06:17:01.591Z,50.00
2019-01-06T06:19:49.745Z,50.00
2019-01-06T06:22:37.873Z,50.10
2019-01-06T06:25:44.008Z,50.10
2019-01-06T06:28:47.823Z,50.20
2019-01-06T06:31:39.009Z,50.30
2019-01-06T06:34:38.808Z,50.50
2019-01-06T06:37:25.803Z,50.50
2019-01-06T06:40:32.277Z,51.20
2019-01-06T06:43:35.330Z,50.60
2019-01-06T06:46:29.462Z,50.70
2019-01-06T06:49:14.330Z,50.70
2019-01-06T06:51:56.377Z,50.80
2019-01-06T06:54:43.629Z,50.70
2019-01-06T06:58:04.204Z,50.70
2019-01-06T07:01:32.597Z,50.70
2019-01-06T07:04:27.506Z,50.60
2019-01-06T07:07:14.373Z,50.50
2019-01-06T07:10:01.042Z,50.50
2019-01-06T07:12:47.760Z,50.50
2019-01-06T07:15:34.602Z,50.50
2019-01-06T07:18:38.062Z,50.40
2019-01-06T07:21:31.979Z,50.50
2019-01-06T07:24:18.783Z,50.30
2019-01-06T07:27:16.000Z,50.40
2019-01-06T07:30:10.165Z,50.40
2019-01-06T07:33:04.258Z,50.40
2019-01-06T07:35:53.561Z,50.30
2019-01-06T07:38:48.129Z,50.30
2019-01-06T07:41:42.480Z,50.70
2019-01-06T07:44:27.954Z,50.30
2019-01-06T07:47:11.449Z,50.20
2019-01-06T07:49:59.593Z,50.70
2019-01-06T07:52:46.737Z,51.30
2019-01-06T07:55:37.829Z,51.80
2019-01-06T07:58:18.086Z,51.60
2019-01-06T08:01:10.073Z,51.50
2019-01-06T08:04:13.545Z,52.80
2019-01-06T08:07:00.618Z,52.70
2019-01-06T08:09:53.050Z,52.40
2019-01-06T08:12:47.121Z,52.40
2019-01-06T08:15:54.731Z,52.30
2019-01-06T08:18:41.960Z,52.20
2019-01-06T08:21:30.220Z,52.10
2019-01-06T08:24:17.122Z,52.00
2019-01-06T08:27:05.552Z,51.80
2019-01-06T08:29:56.646Z,51.90
2019-01-06T08:32:44.822Z,51.70
2019-01-06T08:35:32.956Z,51.70
2019-01-06T08:38:19.674Z,51.70
2019-01-06T08:41:25.912Z,51.70
2019-01-06T08:44:20.774Z,51.20
2019-01-06T08:47:07.194Z,50.90
2019-01-06T08:50:04.377Z,50.80
2019-01-06T08:52:51.002Z,50.80
2019-01-06T08:55:37.902Z,50.80
2019-01-06T08:58:22.373Z,50.70
2019-01-06T09:01:08.434Z,50.60
2019-01-06T09:04:06.332Z,50.70
2019-01-06T09:06:53.356Z,50.80
2019-01-06T09:09:45.502Z,50.60
2019-01-06T09:12:29.442Z,50.40
2019-01-06T09:15:13.651Z,50.40
2019-01-06T09:18:01.826Z,50.30
2019-01-06T09:20:48.934Z,50.30
2019-01-06T09:23:37.092Z,50.60
2019-01-06T09:26:24.045Z,50.50
2019-01-06T09:29:21.324Z,51.20
2019-01-06T09:32:12.218Z,51.40
2019-01-06T09:34:59.777Z,51.20
2019-01-06T09:37:46.686Z,51.10
2019-01-06T09:40:33.699Z,51.10
2019-01-06T09:43:27.953Z,51.10
2019-01-06T09:46:15.609Z,51.10
2019-01-06T09:49:04.066Z,51.00
2019-01-06T09:52:01.401Z,50.90
2019-01-06T09:54:58.792Z,50.80
2019-01-06T09:57:46.989Z,50.70
2019-01-06T10:00:33.711Z,50.70
2019-01-06T10:03:19.653Z,50.50
2019-01-06T10:06:23.025Z,50.50
2019-01-06T10:09:10.181Z,50.40
2019-01-06T10:11:53.901Z,50.40
2019-01-06T10:14:34.800Z,50.40
2019-01-06T10:17:21.102Z,50.40
2019-01-06T10:20:09.257Z,50.30
2019-01-06T10:22:56.166Z,50.20
2019-01-06T10:25:50.175Z,50.20
2019-01-06T10:28:37.186Z,50.20
2019-01-06T10:31:43.570Z,50.40
2019-01-06T10:34:40.606Z,50.20
2019-01-06T10:37:37.484Z,50.20
2019-01-06T10:40:35.942Z,50.20
2019-01-06T10:43:33.208Z,50.30
2019-01-06T10:46:24.094Z,50.40
2019-01-06T10:49:11.086Z,50.50
2019-01-06T10:51:58.137Z,50.50
2019-01-06T10:54:49.308Z,50.50
2019-01-06T10:57:43.969Z,50.40
2019-01-06T11:00:31.138Z,50.40
2019-01-06T11:03:19.246Z,50.40
2019-01-06T11:06:04.261Z,50.40
2019-01-06T11:09:04.498Z,50.40
2019-01-06T11:12:10.961Z,50.40
2019-01-06T11:14:52.531Z,51.10
2019-01-06T11:17:43.748Z,51.80
2019-01-06T11:20:30.715Z,51.20
2019-01-06T11:23:17.493Z,52.70
2019-01-06T11:26:08.826Z,53.10
2019-01-06T11:29:03.245Z,52.70
2019-01-06T11:32:03.514Z,52.60
2019-01-06T11:34:50.323Z,54.10
2019-01-06T11:37:44.263Z,54.00
2019-01-06T11:40:31.130Z,54.10
2019-01-06T11:43:25.362Z,53.20
2019-01-06T11:46:16.475Z,52.70
2019-01-06T11:49:03.720Z,52.30
2019-01-06T11:51:51.222Z,52.00
2019-01-06T11:54:38.039Z,51.90
2019-01-06T11:57:25.068Z,51.70
2019-01-06T12:00:09.761Z,51.60
2019-01-06T12:03:09.648Z,51.60
2019-01-06T12:05:56.610Z,51.40
2019-01-06T12:08:56.726Z,51.20
2019-01-06T12:11:56.917Z,51.20
2019-01-06T12:14:45.322Z,51.30
2019-01-06T12:17:36.308Z,51.20
2019-01-06T12:20:30.312Z,51.40
2019-01-06T12:23:21.489Z,51.30
2019-01-06T12:26:23.945Z,51.40
2019-01-06T12:29:15.383Z,51.30
2019-01-06T12:32:03.538Z,51.20
2019-01-06T12:34:50.408Z,51.00
2019-01-06T12:37:41.355Z,50.70
2019-01-06T12:40:28.117Z,50.60
2019-01-06T12:43:19.081Z,50.60
2019-01-06T12:46:05.714Z,50.60
2019-01-06T12:48:56.785Z,50.50
2019-01-06T12:51:47.896Z,50.50
2019-01-06T12:54:36.427Z,50.40
2019-01-06T12:57:44.147Z,50.40
2019-01-06T13:00:25.445Z,50.30
2019-01-06T13:03:23.065Z,50.30
2019-01-06T13:06:14.065Z,50.30
2019-01-06T13:09:08.251Z,50.20
2019-01-06T13:11:55.801Z,50.20
2019-01-06T13:14:52.826Z,50.10
2019-01-06T13:17:46.872Z,50.10
2019-01-06T13:20:50.006Z,50.10
2019-01-06T13:23:36.562Z,50.00
2019-01-06T13:26:23.316Z,50.00
2019-01-06T13:29:20.913Z,50.10
2019-01-06T13:32:07.659Z,50.00
2019-01-06T13:34:58.649Z,50.00
2019-01-06T13:37:45.668Z,49.90
2019-01-06T13:40:34.032Z,49.90
2019-01-06T13:43:27.061Z,50.30
2019-01-06T13:46:17.857Z,50.70
2019-01-06T13:49:04.797Z,50.50
2019-01-06T13:51:59.309Z,51.00
2019-01-06T13:54:50.029Z,51.30
2019-01-06T13:57:37.561Z,50.90
2019-01-06T14:00:25.417Z,51.40
2019-01-06T14:03:12.381Z,52.40
2019-01-06T14:05:59.154Z,52.00
2019-01-06T14:09:02.351Z,52.10
2019-01-06T14:12:02.522Z,54.60
2019-01-06T14:15:08.813Z,51.80
2019-01-06T14:18:09.297Z,53.60
2019-01-06T14:20:56.028Z,52.60
2019-01-06T14:23:53.286Z,51.40
2019-01-06T14:26:39.855Z,51.10
2019-01-06T14:29:27.995Z,50.90
2019-01-06T14:32:28.430Z,50.80
2019-01-06T14:35:19.689Z,50.50
2019-01-06T14:38:13.648Z,50.60
2019-01-06T14:41:07.875Z,50.60
2019-01-06T14:44:02.842Z,50.80
2019-01-06T14:46:48.667Z,50.60
2019-01-06T14:49:41.292Z,50.40
2019-01-06T14:52:49.146Z,50.50
2019-01-06T14:55:31.638Z,50.50
2019-01-06T14:58:23.963Z,50.40
2019-01-06T15:01:11.060Z,50.70
2019-01-06T15:04:05.198Z,50.60
2019-01-06T15:06:52.497Z,50.80
2019-01-06T15:09:40.654Z,50.80
2019-01-06T15:12:40.227Z,50.80
2019-01-06T15:15:27.375Z,50.70
2019-01-06T15:18:33.214Z,50.80
2019-01-06T15:21:17.420Z,50.70
2019-01-06T15:24:08.137Z,50.70
2019-01-06T15:26:50.885Z,50.80
2019-01-06T15:29:57.597Z,51.00
2019-01-06T15:32:45.754Z,51.00
2019-01-06T15:35:26.311Z,50.80
2019-01-06T15:38:07.048Z,50.60
2019-01-06T15:41:07.479Z,50.70
2019-01-06T15:43:58.681Z,50.70
2019-01-06T15:46:50.053Z,50.50
2019-01-06T15:49:38.247Z,50.30
2019-01-06T15:52:25.129Z,50.30
2019-01-06T15:55:28.584Z,50.10
2019-01-06T15:58:28.080Z,50.00
2019-01-06T16:01:23.518Z,50.00
2019-01-06T16:04:14.674Z,50.00
2019-01-06T16:06:57.745Z,50.00
2019-01-06T16:09:45.822Z,50.00
2019-01-06T16:12:45.229Z,50.20
2019-01-06T16:15:48.431Z,50.20
2019-01-06T16:18:35.314Z,50.20
2019-01-06T16:21:28.106Z,50.20
2019-01-06T16:24:15.297Z,50.20
2019-01-06T16:26:56.609Z,50.20
2019-01-06T16:30:03.124Z,50.10
2019-01-06T16:32:50.167Z,50.10
2019-01-06T16:35:47.547Z,50.00
2019-01-06T16:38:35.722Z,50.00
2019-01-06T16:41:29.859Z,50.00
2019-01-06T16:44:17.040Z,49.90
2019-01-06T16:47:04.049Z,50.00
2019-01-06T16:49:59.195Z,50.00
2019-01-06T16:52:49.169Z,50.00
2019-01-06T16:55:35.942Z,50.10
2019-01-06T16:58:30.194Z,50.20
2019-01-06T17:01:18.361Z,50.20
2019-01-06T17:04:05.497Z,50.10
2019-01-06T17:06:50.754Z,50.10
2019-01-06T17:09:50.498Z,50.00
2019-01-06T17:12:37.412Z,49.90
2019-01-06T17:15:14.910Z,50.10
2019-01-06T17:18:02.335Z,49.90
2019-01-06T17:20:49.277Z,50.30
2019-01-06T17:23:36.148Z,50.40
2019-01-06T17:26:25.948Z,50.80
2019-01-06T17:29:12.738Z,50.40
2019-01-06T17:32:04.305Z,50.70
2019-01-06T17:35:04.313Z,50.70
2019-01-06T17:38:07.916Z,50.20
2019-01-06T17:41:11.803Z,50.40
2019-01-06T17:44:00.014Z,50.40
2019-01-06T17:47:06.582Z,50.30
2019-01-06T17:49:53.615Z,50.20
2019-01-06T17:53:00.050Z,50.20
2019-01-06T17:55:46.785Z,50.30
2019-01-06T17:58:45.293Z,50.30
2019-01-06T18:01:44.945Z,50.20
2019-01-06T18:04:31.588Z,50.00
2019-01-06T18:07:18.652Z,49.70
2019-01-06T18:10:12.315Z,49.60
2019-01-06T18:12:59.558Z,49.60
2019-01-06T18:15:50.733Z,49.70
2019-01-06T18:18:41.662Z,49.80
2019-01-06T18:21:37.970Z,49.80
2019-01-06T18:24:30.158Z,49.90
2019-01-06T18:27:30.606Z,49.90
2019-01-06T18:30:17.609Z,49.90
2019-01-06T18:33:17.892Z,49.80
2019-01-06T18:36:04.618Z,49.70
2019-01-06T18:38:51.565Z,49.70
2019-01-06T18:41:42.715Z,49.70
2019-01-06T18:44:38.393Z,49.80
2019-01-06T18:47:29.777Z,50.20
2019-01-06T18:50:24.292Z,50.40
2019-01-06T18:53:18.494Z,50.10
2019-01-06T18:56:00.826Z,50.30
2019-01-06T18:58:54.803Z,50.30
2019-01-06T19:01:47.088Z,50.40
2019-01-06T19:04:44.262Z,50.30
2019-01-06T19:07:50.465Z,50.20
2019-01-06T19:10:42.981Z,50.10
2019-01-06T19:13:37.186Z,50.00
2019-01-06T19:16:25.382Z,50.10
2019-01-06T19:19:28.759Z,50.30
2019-01-06T19:22:15.819Z,50.30
2019-01-06T19:25:09.796Z,50.40
2019-01-06T19:27:55.602Z,50.30
2019-01-06T19:30:49.953Z,50.30
2019-01-06T19:33:37.461Z,50.40
2019-01-06T19:36:24.569Z,50.40
2019-01-06T19:39:21.973Z,50.50
2019-01-06T19:42:19.018Z,50.50
2019-01-06T19:45:06.356Z,50.50
2019-01-06T19:47:58.081Z,50.40
2019-01-06T19:50:48.145Z,50.20
2019-01-06T19:53:36.303Z,50.40
2019-01-06T19:56:39.910Z,50.20
2019-01-06T19:59:45.420Z,50.20
2019-01-06T20:02:32.516Z,50.00
2019-01-06T20:05:33.918Z,50.00
2019-01-06T20:08:40.190Z,50.00
2019-01-06T20:11:28.385Z,49.90
2019-01-06T20:14:22.762Z,50.00
2019-01-06T20:17:10.974Z,50.00
2019-01-06T20:20:14.479Z,50.00
2019-01-06T20:23:12.730Z,50.10
2019-01-06T20:26:09.653Z,50.10
2019-01-06T20:29:00.812Z,50.20
2019-01-06T20:31:45.982Z,50.20
2019-01-06T20:34:39.964Z,50.30
2019-01-06T20:37:31.123Z,50.30
2019-01-06T20:40:31.524Z,50.40
2019-01-06T20:43:24.085Z,50.40
2019-01-06T20:46:11.199Z,51.20
2019-01-06T20:49:07.214Z,50.50
2019-01-06T20:51:51.651Z,50.40
2019-01-06T20:54:38.352Z,50.20
2019-01-06T20:57:43.085Z,50.20
2019-01-06T21:00:42.124Z,50.10
2019-01-06T21:03:39.427Z,50.00
2019-01-06T21:06:22.325Z,50.10
2019-01-06T21:09:09.322Z,50.20
2019-01-06T21:12:12.497Z,50.40
2019-01-06T21:14:59.342Z,50.40
2019-01-06T21:17:47.490Z,50.50
2019-01-06T21:20:34.669Z,50.60
2019-01-06T21:23:32.519Z,50.60
2019-01-06T21:26:29.810Z,50.70
2019-01-06T21:29:16.861Z,50.80
2019-01-06T21:32:03.561Z,50.80
2019-01-06T21:34:50.213Z,50.90
2019-01-06T21:37:33.594Z,50.90
2019-01-06T21:40:28.841Z,51.00
2019-01-06T21:43:16.261Z,51.00
2019-01-06T21:46:16.449Z,51.00
2019-01-06T21:49:03.497Z,51.10
2019-01-06T21:51:45.514Z,51.00
2019-01-06T21:54:42.790Z,51.40
2019-01-06T21:57:49.731Z,51.40
2019-01-06T22:00:31.158Z,51.40
2019-01-06T22:03:17.986Z,51.20
2019-01-06T22:06:09.777Z,51.20
2019-01-06T22:09:06.950Z,51.00
2019-01-06T22:11:53.702Z,51.20
2019-01-06T22:14:40.480Z,51.00
2019-01-06T22:17:35.546Z,51.10
2019-01-06T22:20:29.617Z,50.90
2019-01-06T22:23:16.578Z,51.80
2019-01-06T22:26:08.801Z,51.10
2019-01-06T22:29:03.024Z,51.10
2019-01-06T22:31:51.202Z,51.10
2019-01-06T22:34:32.393Z,51.00
2019-01-06T22:37:19.080Z,51.10
2019-01-06T22:40:09.102Z,51.10
2019-01-06T22:42:56.134Z,51.10
2019-01-06T22:45:44.045Z,51.10
2019-01-06T22:48:32.847Z,51.10
2019-01-06T22:51:24.641Z,51.10
2019-01-06T22:54:28.162Z,51.00
2019-01-06T22:57:22.052Z,51.10
2019-01-06T23:00:08.603Z,51.10
2019-01-06T23:02:55.582Z,51.10
2019-01-06T23:05:46.826Z,50.80
2019-01-06T23:08:25.942Z,50.60
2019-01-06T23:11:20.269Z,50.10
2019-01-06T23:14:08.446Z,50.40
2019-01-06T23:16:55.398Z,50.30
2019-01-06T23:19:44.321Z,50.50
2019-01-06T23:22:50.840Z,50.30
2019-01-06T23:25:32.603Z,50.50
2019-01-06T23:28:19.541Z,50.70
2019-01-06T23:31:06.210Z,50.60
2019-01-06T23:34:01.988Z,50.80
2019-01-06T23:36:43.062Z,50.60
2019-01-06T23:39:49.573Z,50.60
2019-01-06T23:42:37.650Z,50.50
2019-01-06T23:45:34.442Z,50.50
2019-01-06T23:48:21.181Z,50.50
2019-01-06T23:51:15.745Z,50.40
2019-01-06T23:54:12.946Z,51.00
2019-01-06T23:57:01.041Z,50.40
2019-01-06T23:59:53.457Z,50.50
